PASN/SNP METAR and TAF weather

Enter ICAO airport designator
Station Type Date Time Source
PASN METAR 2022/06/25 21:53 UTC NOAA

PASN 252153Z AUTO 10010KT 1 3/4SM BR OVC003 07/06 A2975 RMK AO2 RAB15E52 SLP073 P0001 T00670061 TSNO $


Station Type Date Time Source
PASN Decoded METAR 2022/06/25 21:53 UTC NOAA

ST PAUL ISLAND AIRPORT, AK, United States (PASN) 57-10N 170-13W 9M
Jun 25, 2022 - 05:53 PM EDT / 2022.06.25 2153 UTC
Wind: from the E (100 degrees) at 12 MPH (10 KT):0
Visibility: 1 3/4 mile(s):0
Sky conditions: overcast
Weather: mist
Precipitation last hour: 0.01 inches
Temperature: 44.1 F (6.7 C)
Dew Point: 43.0 F (6.1 C)
Relative Humidity: 95%
Pressure (altimeter): 29.75 in. Hg (1007 hPa)
ob: PASN 252153Z AUTO 10010KT 1 3/4SM BR OVC003 07/06 A2975 RMK AO2 RAB15E52 SLP073 P0001 T00670061 TSNO
cycle: 22

Station Type Date Time Source
PASN TAF 2022/06/25 18:40 UTC NOAA

TAF PASN 251738Z 2518/2618 10012KT 3SM -RA BR SCT002 OVC008
TEMPO 2518/2522 2SM RA BR BKN002
FM260200 23006KT 2SM BR OVC003

Example: see airport list